createdAt,value
2018-07-06T00:01:45.139Z,6.40
2018-07-06T00:04:24.926Z,6.03
2018-07-06T00:07:04.725Z,6.20
2018-07-06T00:09:44.694Z,5.72
2018-07-06T00:12:24.685Z,5.37
2018-07-06T00:15:04.624Z,5.30
2018-07-06T00:17:44.289Z,6.33
2018-07-06T00:20:23.996Z,6.50
2018-07-06T00:23:03.716Z,6.30
2018-07-06T00:25:43.599Z,5.70
2018-07-06T00:28:23.542Z,6.80
2018-07-06T00:31:03.270Z,6.70
2018-07-06T00:33:43.170Z,6.60
2018-07-06T00:36:22.689Z,6.67
2018-07-06T00:39:02.440Z,6.87
2018-07-06T00:41:42.140Z,8.90
2018-07-06T00:44:21.985Z,8.50
2018-07-06T00:47:02.135Z,7.80
2018-07-06T00:49:41.904Z,8.43
2018-07-06T00:52:21.985Z,9.50
2018-07-06T00:55:01.794Z,7.43
2018-07-06T00:57:56.099Z,10.10
2018-07-06T01:00:35.622Z,9.40
2018-07-06T01:03:15.298Z,9.83
2018-07-06T01:05:55.205Z,10.17
2018-07-06T01:08:34.880Z,10.63
2018-07-06T01:11:14.886Z,9.37
2018-07-06T01:13:54.768Z,8.60
2018-07-06T01:16:34.425Z,9.10
2018-07-06T01:19:14.186Z,9.13
2018-07-06T01:21:54.325Z,9.40
2018-07-06T01:24:34.175Z,9.93
2018-07-06T01:27:14.019Z,10.20
2018-07-06T01:29:53.829Z,10.40
2018-07-06T01:32:33.803Z,9.37
2018-07-06T01:35:13.454Z,10.50
2018-07-06T01:37:53.124Z,10.40
2018-07-06T01:40:32.955Z,10.53
2018-07-06T01:43:12.899Z,9.93
2018-07-06T01:45:52.531Z,9.83
2018-07-06T01:48:32.473Z,9.67
2018-07-06T01:51:12.101Z,10.40
2018-07-06T01:53:51.789Z,10.90
2018-07-06T01:56:31.584Z,10.03
2018-07-06T01:59:11.301Z,9.70
2018-07-06T02:01:51.345Z,10.17
2018-07-06T02:04:31.135Z,10.53
2018-07-06T02:07:11.061Z,12.30
2018-07-06T02:09:50.955Z,10.13
2018-07-06T02:12:30.781Z,11.87
2018-07-06T02:15:10.654Z,11.30
2018-07-06T02:17:50.419Z,10.57
2018-07-06T02:20:30.301Z,10.87
2018-07-06T02:23:10.069Z,8.57
2018-07-06T02:25:49.864Z,9.83
2018-07-06T02:28:29.554Z,9.70
2018-07-06T02:31:09.349Z,9.50
2018-07-06T02:33:49.255Z,9.70
2018-07-06T02:36:29.126Z,8.83
2018-07-06T02:39:08.727Z,8.47
2018-07-06T02:41:48.539Z,8.40
2018-07-06T02:44:28.271Z,10.20
2018-07-06T02:47:08.751Z,9.17
2018-07-06T02:49:49.512Z,9.23
2018-07-06T02:52:29.322Z,8.63
2018-07-06T02:55:09.085Z,8.17
2018-07-06T02:57:49.505Z,9.10
2018-07-06T03:00:29.422Z,8.53
2018-07-06T03:03:09.110Z,8.87
2018-07-06T03:05:49.152Z,7.70
2018-07-06T03:08:29.212Z,8.40
2018-07-06T03:11:09.007Z,8.90
2018-07-06T03:13:48.760Z,8.10
2018-07-06T03:16:28.586Z,7.50
2018-07-06T03:19:08.595Z,35.23
2018-07-06T03:21:48.429Z,7.30
2018-07-06T03:24:28.794Z,7.60
2018-07-06T03:27:08.762Z,7.80
2018-07-06T03:29:48.641Z,8.13
2018-07-06T03:32:28.494Z,8.17
2018-07-06T03:35:08.107Z,8.30
2018-07-06T03:37:47.752Z,8.40
2018-07-06T03:40:27.626Z,9.77
2018-07-06T03:43:07.467Z,23.13
2018-07-06T03:45:47.391Z,9.13
2018-07-06T03:48:28.529Z,7.47
2018-07-06T03:51:09.116Z,8.00
2018-07-06T03:53:49.385Z,11.50
2018-07-06T03:56:29.230Z,11.10
2018-07-06T03:59:09.050Z,10.70
2018-07-06T04:01:49.131Z,9.67
2018-07-06T04:04:28.968Z,10.40
2018-07-06T04:07:09.057Z,24.18
2018-07-06T04:09:48.806Z,12.20
2018-07-06T04:12:28.756Z,10.40
2018-07-06T04:15:08.836Z,10.27
2018-07-06T04:17:48.699Z,9.63
2018-07-06T04:20:28.669Z,9.53
2018-07-06T04:23:08.266Z,10.00
2018-07-06T04:25:48.016Z,9.90
2018-07-06T04:28:27.742Z,8.73
2018-07-06T04:31:07.433Z,9.23
2018-07-06T04:33:47.455Z,10.10
2018-07-06T04:36:27.750Z,9.40
2018-07-06T04:39:07.445Z,8.15
2018-07-06T04:41:47.306Z,9.47
2018-07-06T04:44:27.322Z,9.90
2018-07-06T04:47:07.240Z,10.53
2018-07-06T04:49:46.990Z,10.30
2018-07-06T04:52:26.816Z,9.77
2018-07-06T04:55:06.490Z,7.70
2018-07-06T04:57:46.187Z,10.50
2018-07-06T05:00:26.036Z,8.10
2018-07-06T05:03:06.017Z,8.30
2018-07-06T05:05:45.866Z,8.33
2018-07-06T05:08:25.942Z,8.13
2018-07-06T05:11:05.690Z,7.67
2018-07-06T05:13:45.674Z,30.00
2018-07-06T05:16:25.380Z,9.20
2018-07-06T05:19:05.040Z,8.40
2018-07-06T05:21:44.910Z,8.23
2018-07-06T05:24:24.786Z,7.07
2018-07-06T05:27:04.543Z,7.60
2018-07-06T05:29:44.760Z,7.80
2018-07-06T05:32:24.513Z,7.80
2018-07-06T05:35:04.231Z,7.80
2018-07-06T05:37:44.329Z,8.47
2018-07-06T05:40:23.992Z,7.00
2018-07-06T05:43:03.868Z,7.12
2018-07-06T05:45:43.437Z,6.83
2018-07-06T05:48:23.154Z,6.30
2018-07-06T05:51:03.018Z,5.93
2018-07-06T05:53:43.222Z,6.17
2018-07-06T05:56:23.051Z,5.70
2018-07-06T05:59:03.016Z,9.50
2018-07-06T06:01:42.732Z,10.87
2018-07-06T06:04:22.870Z,7.13
2018-07-06T06:07:02.472Z,5.23
2018-07-06T06:09:31.216Z,4.60
2018-07-06T06:11:59.863Z,4.70
2018-07-06T06:14:28.618Z,5.90
2018-07-06T06:16:57.991Z,4.60
2018-07-06T06:19:26.928Z,5.43
2018-07-06T06:21:56.196Z,4.62
2018-07-06T06:24:24.868Z,4.83
2018-07-06T06:26:53.649Z,4.50
2018-07-06T06:29:22.517Z,4.70
2018-07-06T06:31:51.287Z,5.35
2018-07-06T06:34:20.058Z,4.93
2018-07-06T06:36:48.928Z,5.20
2018-07-06T06:39:17.888Z,5.30
2018-07-06T06:41:46.492Z,4.87
2018-07-06T06:44:15.302Z,5.00
2018-07-06T06:46:44.526Z,4.77
2018-07-06T06:49:13.266Z,5.33
2018-07-06T06:51:42.287Z,5.07
2018-07-06T06:54:11.177Z,5.20
2018-07-06T06:56:40.128Z,4.90
2018-07-06T06:59:09.054Z,4.77
2018-07-06T07:01:37.958Z,6.00
2018-07-06T07:04:06.727Z,4.67
2018-07-06T07:06:35.393Z,5.50
2018-07-06T07:09:05.260Z,5.23
2018-07-06T07:11:34.853Z,5.10
2018-07-06T07:14:03.623Z,5.40
2018-07-06T07:16:32.306Z,5.67
2018-07-06T07:19:01.167Z,5.10
2018-07-06T07:21:29.958Z,5.93
2018-07-06T07:23:59.645Z,5.20
2018-07-06T07:26:28.302Z,6.27
2018-07-06T07:28:57.449Z,9.15
2018-07-06T07:31:26.523Z,8.13
2018-07-06T07:33:55.891Z,8.73
2018-07-06T07:36:24.711Z,9.33
2018-07-06T07:38:53.498Z,9.13
2018-07-06T07:41:22.223Z,10.30
2018-07-06T07:43:50.952Z,9.07
2018-07-06T07:46:20.032Z,9.47
2018-07-06T07:48:48.845Z,7.87
2018-07-06T07:52:27.693Z,8.23
2018-07-06T07:54:56.854Z,8.27
2018-07-06T07:57:25.477Z,7.30
2018-07-06T07:59:55.463Z,6.47
2018-07-06T08:02:24.832Z,7.30
2018-07-06T08:04:54.265Z,6.80
2018-07-06T08:07:22.933Z,6.87
2018-07-06T08:09:51.642Z,6.20
2018-07-06T08:12:20.352Z,7.73
2018-07-06T08:14:49.309Z,7.70
2018-07-06T08:17:17.977Z,8.07
2018-07-06T08:19:46.828Z,8.90
2018-07-06T08:22:16.034Z,9.00
2018-07-06T08:24:45.334Z,8.50
2018-07-06T08:27:13.922Z,10.33
2018-07-06T08:29:43.377Z,11.03
2018-07-06T08:32:12.268Z,12.30
2018-07-06T08:34:52.223Z,11.77
2018-07-06T08:37:36.433Z,11.00
2018-07-06T08:40:05.300Z,11.90
2018-07-06T08:42:35.442Z,14.23
2018-07-06T08:45:04.914Z,13.37
2018-07-06T08:47:33.941Z,14.50
2018-07-06T08:50:03.974Z,16.20
2018-07-06T08:52:32.684Z,19.47
2018-07-06T08:55:01.678Z,17.13
2018-07-06T08:57:31.475Z,18.50
2018-07-06T09:00:00.114Z,20.65
2018-07-06T09:02:29.213Z,19.30
2018-07-06T09:04:58.855Z,18.50
2018-07-06T09:07:27.761Z,18.23
2018-07-06T09:09:57.368Z,17.70
2018-07-06T09:12:26.126Z,17.97
2018-07-06T09:14:55.164Z,17.83
2018-07-06T09:17:24.365Z,18.17
2018-07-06T09:19:54.096Z,19.60
2018-07-06T09:22:23.481Z,21.13
2018-07-06T09:24:53.508Z,21.10
2018-07-06T09:27:22.338Z,21.20
2018-07-06T09:29:50.904Z,19.73
2018-07-06T09:32:19.584Z,20.80
2018-07-06T09:34:49.527Z,16.90
2018-07-06T09:37:18.273Z,11.13
2018-07-06T09:39:47.743Z,10.93
2018-07-06T09:42:17.150Z,13.40
2018-07-06T09:44:46.069Z,13.33
2018-07-06T09:47:15.162Z,13.73
2018-07-06T09:49:43.824Z,13.87
2018-07-06T09:52:12.752Z,14.67
2018-07-06T09:54:41.488Z,15.10
2018-07-06T09:57:11.158Z,15.85
2018-07-06T09:59:39.786Z,17.17
2018-07-06T10:02:08.692Z,16.75
2018-07-06T10:04:37.574Z,17.00
2018-07-06T10:07:06.292Z,16.67
2018-07-06T10:09:35.092Z,18.07
2018-07-06T10:12:03.865Z,18.40
2018-07-06T10:14:32.967Z,19.93
2018-07-06T10:17:02.339Z,21.20
2018-07-06T10:19:32.341Z,21.07
2018-07-06T10:22:00.884Z,21.00
2018-07-06T10:24:29.666Z,20.05
2018-07-06T10:26:58.613Z,21.97
2018-07-06T10:29:39.174Z,22.23
2018-07-06T10:32:27.377Z,22.80
2018-07-06T10:34:56.455Z,23.43
2018-07-06T10:37:25.503Z,22.60
2018-07-06T10:39:54.559Z,23.30
2018-07-06T10:42:23.076Z,22.90
2018-07-06T10:44:51.750Z,24.73
2018-07-06T10:47:20.914Z,22.90
2018-07-06T10:49:49.779Z,22.32
2018-07-06T10:52:18.634Z,21.03
2018-07-06T10:54:47.738Z,21.40
2018-07-06T10:57:16.585Z,18.80
2018-07-06T10:59:45.423Z,21.52
2018-07-06T11:02:14.779Z,22.53
2018-07-06T11:04:43.560Z,22.80
2018-07-06T11:07:12.141Z,23.87
2018-07-06T11:09:41.084Z,23.77
2018-07-06T11:12:09.938Z,24.37
2018-07-06T11:14:38.658Z,24.60
2018-07-06T11:17:07.425Z,25.70
2018-07-06T11:19:36.080Z,25.00
2018-07-06T11:22:04.854Z,25.90
2018-07-06T11:24:33.458Z,24.97
2018-07-06T11:27:02.075Z,22.87
2018-07-06T11:29:30.748Z,22.77
2018-07-06T11:31:59.574Z,21.27
2018-07-06T11:34:28.380Z,20.00
2018-07-06T11:36:57.944Z,20.70
2018-07-06T11:39:26.538Z,19.47
2018-07-06T11:41:55.263Z,17.17
2018-07-06T11:44:23.980Z,19.30
2018-07-06T11:46:52.647Z,19.20
2018-07-06T11:49:21.267Z,17.80
2018-07-06T11:51:49.980Z,17.70
2018-07-06T11:54:18.579Z,17.30
2018-07-06T11:56:47.167Z,16.40
2018-07-06T11:59:16.760Z,16.97
2018-07-06T12:01:46.323Z,14.47
2018-07-06T12:04:15.248Z,13.80
2018-07-06T12:06:44.554Z,12.50
2018-07-06T12:09:13.319Z,11.50
2018-07-06T12:11:42.309Z,12.27
2018-07-06T12:14:11.173Z,13.93
2018-07-06T12:16:39.985Z,13.13
2018-07-06T12:19:08.693Z,16.57
2018-07-06T12:21:37.406Z,16.40
2018-07-06T12:24:06.986Z,13.97
2018-07-06T12:26:35.793Z,14.87
2018-07-06T12:29:04.568Z,13.27
2018-07-06T12:31:34.014Z,12.00
2018-07-06T12:34:02.879Z,10.60
2018-07-06T12:36:31.746Z,10.43
2018-07-06T12:39:00.644Z,10.50
2018-07-06T12:41:29.313Z,9.70
2018-07-06T12:43:57.942Z,10.17
2018-07-06T12:46:26.550Z,10.40
2018-07-06T12:48:55.305Z,12.57
2018-07-06T12:51:24.374Z,17.42
2018-07-06T12:53:53.039Z,17.83
2018-07-06T12:56:21.899Z,40.93
2018-07-06T12:58:51.524Z,20.13
2018-07-06T13:01:20.445Z,15.70
2018-07-06T13:03:49.329Z,15.50
2018-07-06T13:06:18.175Z,16.80
2018-07-06T13:08:47.014Z,18.00
2018-07-06T13:11:16.408Z,19.00
2018-07-06T13:13:45.186Z,18.60
2018-07-06T13:16:14.141Z,17.67
2018-07-06T13:18:43.080Z,17.00
2018-07-06T13:21:11.846Z,15.93
2018-07-06T13:23:40.647Z,14.70
2018-07-06T13:26:09.384Z,9.40
2018-07-06T13:28:38.775Z,11.27
2018-07-06T13:31:08.449Z,10.90
2018-07-06T13:33:37.096Z,10.90
2018-07-06T13:36:05.921Z,9.97
2018-07-06T13:38:34.915Z,10.77
2018-07-06T13:41:04.185Z,11.53
2018-07-06T13:43:33.290Z,10.93
2018-07-06T13:46:02.272Z,10.77
2018-07-06T13:48:31.540Z,10.50
2018-07-06T13:51:00.968Z,11.00
2018-07-06T13:53:29.626Z,10.67
2018-07-06T13:55:58.430Z,9.10
2018-07-06T13:58:27.263Z,9.17
2018-07-06T14:00:55.947Z,7.73
2018-07-06T14:03:24.631Z,8.80
2018-07-06T14:05:53.232Z,9.30
2018-07-06T14:08:21.874Z,8.27
2018-07-06T14:10:50.601Z,9.07
2018-07-06T14:13:19.220Z,8.77
2018-07-06T14:15:48.645Z,8.30
2018-07-06T14:18:17.556Z,8.70
2018-07-06T14:20:46.258Z,8.10
2018-07-06T14:23:15.025Z,7.27
2018-07-06T14:25:43.771Z,7.90
2018-07-06T14:28:12.537Z,6.53
2018-07-06T14:30:41.705Z,6.60
2018-07-06T14:33:10.818Z,6.17
2018-07-06T14:35:40.435Z,7.20
2018-07-06T14:38:09.423Z,6.90
2018-07-06T14:40:38.180Z,5.90
2018-07-06T14:43:07.015Z,5.87
2018-07-06T14:45:35.835Z,6.80
2018-07-06T14:48:04.819Z,6.80
2018-07-06T14:50:33.525Z,6.92
2018-07-06T14:53:02.131Z,7.97
2018-07-06T14:55:30.850Z,7.47
2018-07-06T14:57:59.950Z,7.53
2018-07-06T15:00:28.711Z,7.60
2018-07-06T15:02:57.650Z,6.80
2018-07-06T15:05:27.497Z,6.33
2018-07-06T15:07:56.185Z,6.67
2018-07-06T15:10:24.949Z,6.40
2018-07-06T15:12:53.769Z,5.50
2018-07-06T15:15:22.597Z,6.63
2018-07-06T15:17:51.242Z,6.33
2018-07-06T15:20:19.972Z,5.65
2018-07-06T15:22:48.566Z,5.80
2018-07-06T15:25:17.268Z,5.70
2018-07-06T15:27:46.000Z,5.62
2018-07-06T15:30:15.240Z,6.20
2018-07-06T15:32:44.198Z,5.80
2018-07-06T15:35:13.084Z,6.57
2018-07-06T15:37:41.712Z,5.27
2018-07-06T15:40:10.358Z,5.53
2018-07-06T15:42:39.130Z,5.93
2018-07-06T15:45:08.014Z,5.80
2018-07-06T15:47:36.762Z,5.63
2018-07-06T15:50:05.340Z,6.30
2018-07-06T15:52:33.961Z,6.53
2018-07-06T15:55:03.565Z,6.00
2018-07-06T15:57:32.288Z,5.30
2018-07-06T16:00:01.034Z,6.70
2018-07-06T16:02:29.650Z,5.97
2018-07-06T16:04:58.340Z,5.73
2018-07-06T16:07:27.035Z,5.70
2018-07-06T16:09:55.650Z,5.87
2018-07-06T16:12:24.405Z,5.90
2018-07-06T16:14:53.059Z,6.13
2018-07-06T16:17:21.843Z,6.30
2018-07-06T16:19:50.514Z,7.30
2018-07-06T16:22:19.123Z,6.00
2018-07-06T16:24:48.633Z,6.30
2018-07-06T16:27:18.772Z,6.60
2018-07-06T16:29:47.560Z,5.22
2018-07-06T16:32:16.386Z,6.80
2018-07-06T16:34:45.031Z,6.50
2018-07-06T16:37:13.778Z,6.07
2018-07-06T16:39:42.454Z,6.80
2018-07-06T16:42:11.040Z,6.20
2018-07-06T16:44:39.662Z,6.13
2018-07-06T16:47:08.986Z,5.47
2018-07-06T16:49:37.570Z,5.80
2018-07-06T16:52:06.281Z,26.57
2018-07-06T16:54:35.180Z,6.60
2018-07-06T16:57:03.916Z,3.50
2018-07-06T16:59:32.700Z,3.40
2018-07-06T17:02:01.469Z,3.08
2018-07-06T17:04:30.319Z,3.20
2018-07-06T17:06:59.424Z,2.57
2018-07-06T17:09:28.210Z,2.20
2018-07-06T17:11:56.966Z,2.43
2018-07-06T17:14:25.822Z,2.13
2018-07-06T17:16:54.592Z,2.30
2018-07-06T17:19:23.495Z,2.90
2018-07-06T17:21:52.243Z,1.67
2018-07-06T17:24:21.061Z,1.50
2018-07-06T17:26:49.678Z,1.65
2018-07-06T17:29:18.400Z,1.50
2018-07-06T17:31:46.980Z,1.60
2018-07-06T17:34:15.840Z,1.57
2018-07-06T17:36:44.904Z,1.60
2018-07-06T17:39:13.590Z,2.10
2018-07-06T17:41:42.280Z,1.37
2018-07-06T17:44:10.870Z,1.60
2018-07-06T17:46:39.551Z,1.90
2018-07-06T17:49:08.287Z,1.33
2018-07-06T17:51:37.049Z,1.53
2018-07-06T17:54:05.761Z,1.73
2018-07-06T17:56:34.880Z,1.67
2018-07-06T17:59:03.685Z,3.00
2018-07-06T18:01:32.416Z,1.93
2018-07-06T18:04:01.065Z,5.87
2018-07-06T18:06:29.931Z,2.07
2018-07-06T18:08:58.795Z,2.30
2018-07-06T18:11:27.516Z,2.80
2018-07-06T18:13:56.720Z,2.10
2018-07-06T18:16:26.581Z,2.37
2018-07-06T18:18:55.400Z,2.40
2018-07-06T18:21:24.110Z,2.27
2018-07-06T18:23:52.776Z,3.12
2018-07-06T18:26:21.587Z,2.93
2018-07-06T18:28:50.836Z,2.50
2018-07-06T18:31:20.491Z,2.30
2018-07-06T18:33:49.866Z,2.37
2018-07-06T18:36:18.577Z,2.40
2018-07-06T18:38:47.386Z,2.50
2018-07-06T18:41:16.436Z,2.60
2018-07-06T18:43:45.379Z,2.60
2018-07-06T18:46:14.206Z,2.70
2018-07-06T18:48:42.895Z,2.60
2018-07-06T18:51:11.807Z,2.80
2018-07-06T18:53:40.753Z,2.70
2018-07-06T18:56:09.747Z,2.83
2018-07-06T18:58:38.883Z,2.57
2018-07-06T19:01:07.961Z,2.37
2018-07-06T19:03:36.883Z,3.00
2018-07-06T19:06:06.039Z,2.53
2018-07-06T19:08:35.477Z,3.00
2018-07-06T19:11:04.316Z,3.03
2018-07-06T19:13:33.250Z,2.57
2018-07-06T19:16:02.286Z,2.90
2018-07-06T19:18:31.412Z,5.40
2018-07-06T19:21:00.636Z,3.87
2018-07-06T19:23:29.767Z,3.10
2018-07-06T19:25:58.873Z,3.20
2018-07-06T19:28:27.545Z,3.02
2018-07-06T19:30:56.820Z,3.80
2018-07-06T19:33:25.790Z,3.62
2018-07-06T19:35:54.569Z,4.10
2018-07-06T19:38:23.643Z,5.17
2018-07-06T19:40:52.877Z,4.77
2018-07-06T19:43:22.491Z,5.45
2018-07-06T19:45:51.398Z,6.37
2018-07-06T19:48:20.230Z,6.60
2018-07-06T19:50:48.932Z,6.83
2018-07-06T19:53:18.064Z,8.00
2018-07-06T19:55:47.232Z,8.83
2018-07-06T19:58:16.434Z,7.93
2018-07-06T20:00:45.827Z,9.10
2018-07-06T20:03:14.781Z,14.00
2018-07-06T20:05:44.016Z,8.63
2018-07-06T20:08:18.153Z,11.70
2018-07-06T20:10:51.623Z,8.33
2018-07-06T20:13:20.445Z,8.83
2018-07-06T20:15:49.491Z,8.10
2018-07-06T20:18:18.500Z,9.03
2018-07-06T20:20:47.448Z,10.00
2018-07-06T20:23:16.122Z,8.90
2018-07-06T20:25:45.005Z,9.57
2018-07-06T20:28:13.608Z,10.13
2018-07-06T20:30:42.786Z,10.03
2018-07-06T20:33:11.657Z,9.23
2018-07-06T20:35:40.403Z,10.30
2018-07-06T20:38:09.575Z,10.90
2018-07-06T20:40:38.817Z,8.73
2018-07-06T20:43:07.561Z,10.03
2018-07-06T20:45:37.216Z,11.67
2018-07-06T20:48:06.061Z,9.80
2018-07-06T20:50:34.931Z,10.17
2018-07-06T20:53:03.623Z,9.57
2018-07-06T20:55:32.516Z,10.75
2018-07-06T20:58:01.305Z,10.50
2018-07-06T21:00:30.585Z,10.50
2018-07-06T21:02:59.364Z,11.53
2018-07-06T21:05:28.440Z,11.93
2018-07-06T21:07:57.402Z,11.00
2018-07-06T21:10:26.437Z,12.03
2018-07-06T21:12:55.791Z,11.50
2018-07-06T21:15:25.146Z,11.20
2018-07-06T21:17:53.828Z,12.60
2018-07-06T21:20:23.371Z,13.87
2018-07-06T21:22:52.421Z,12.70
2018-07-06T21:25:22.084Z,12.20
2018-07-06T21:27:51.956Z,13.20
2018-07-06T21:30:21.178Z,12.30
2018-07-06T21:32:49.954Z,12.77
2018-07-06T21:35:18.644Z,12.20
2018-07-06T21:37:47.349Z,13.37
2018-07-06T21:40:16.089Z,12.03
2018-07-06T21:42:45.294Z,11.60
2018-07-06T21:45:14.812Z,13.27
2018-07-06T21:47:44.709Z,12.47
2018-07-06T21:50:14.278Z,13.00
2018-07-06T21:52:43.201Z,11.38
2018-07-06T21:55:12.136Z,12.53
2018-07-06T21:57:40.856Z,11.57
2018-07-06T22:00:10.880Z,11.13
2018-07-06T22:02:39.736Z,12.17
2018-07-06T22:05:09.318Z,12.10
2018-07-06T22:07:38.568Z,12.30
2018-07-06T22:10:08.038Z,11.90
2018-07-06T22:12:36.709Z,12.60
2018-07-06T22:15:05.567Z,12.50
2018-07-06T22:17:34.362Z,11.53
2018-07-06T22:20:03.133Z,12.37
2018-07-06T22:22:31.930Z,11.87
2018-07-06T22:25:01.381Z,12.57
2018-07-06T22:27:30.287Z,11.50
2018-07-06T22:29:58.992Z,11.93
2018-07-06T22:32:27.788Z,11.00
2018-07-06T22:34:56.388Z,11.13
2018-07-06T22:37:25.133Z,11.70
2018-07-06T22:39:53.971Z,11.40
2018-07-06T22:42:22.618Z,12.00
2018-07-06T22:44:51.227Z,12.47
2018-07-06T22:47:20.042Z,11.57
2018-07-06T22:49:48.661Z,11.40
2018-07-06T22:52:17.322Z,11.27
2018-07-06T22:54:46.097Z,11.77
2018-07-06T22:57:15.064Z,11.53
2018-07-06T22:59:44.527Z,11.33
2018-07-06T23:02:13.171Z,11.67
2018-07-06T23:04:41.937Z,11.93
2018-07-06T23:07:10.614Z,10.80
2018-07-06T23:09:39.415Z,11.60
2018-07-06T23:12:08.122Z,10.63
2018-07-06T23:14:36.808Z,10.93
2018-07-06T23:17:05.988Z,10.60
2018-07-06T23:19:35.292Z,9.80
2018-07-06T23:22:04.067Z,9.77
2018-07-06T23:24:32.792Z,10.03
2018-07-06T23:27:01.452Z,9.70
2018-07-06T23:29:30.043Z,12.00
2018-07-06T23:31:59.594Z,10.03
2018-07-06T23:34:28.658Z,10.03
2018-07-06T23:36:57.326Z,11.20
2018-07-06T23:39:26.072Z,14.10
2018-07-06T23:41:54.828Z,9.90
2018-07-06T23:44:23.541Z,9.80
2018-07-06T23:46:52.382Z,10.00
2018-07-06T23:49:21.233Z,11.73
2018-07-06T23:51:50.022Z,10.90
2018-07-06T23:54:18.843Z,10.27
2018-07-06T23:56:47.747Z,10.20
2018-07-06T23:59:17.033Z,10.53
